sensor_id;sensor_type;location;lat;lon;timestamp;P1;durP1;ratioP1;P2;durP2;ratioP2
35239;SDS011;21376;50.954;4.716;2023-04-24T00:01:34;27.27;;;16.77;;
35239;SDS011;21376;50.954;4.716;2023-04-24T00:04:03;35.80;;;16.90;;
35239;SDS011;21376;50.954;4.716;2023-04-24T00:09:02;35.22;;;18.48;;
35239;SDS011;21376;50.954;4.716;2023-04-24T00:11:31;30.15;;;18.05;;
35239;SDS011;21376;50.954;4.716;2023-04-24T00:14:06;35.38;;;18.52;;
35239;SDS011;21376;50.954;4.716;2023-04-24T00:16:38;33.08;;;18.92;;
35239;SDS011;21376;50.954;4.716;2023-04-24T00:21:42;30.23;;;18.67;;
35239;SDS011;21376;50.954;4.716;2023-04-24T00:24:16;35.72;;;19.05;;
35239;SDS011;21376;50.954;4.716;2023-04-24T00:26:44;40.55;;;18.63;;
35239;SDS011;21376;50.954;4.716;2023-04-24T00:29:09;31.17;;;18.15;;
35239;SDS011;21376;50.954;4.716;2023-04-24T00:31:36;31.05;;;17.70;;
35239;SDS011;21376;50.954;4.716;2023-04-24T00:34:03;37.20;;;18.63;;
35239;SDS011;21376;50.954;4.716;2023-04-24T00:36:29;37.95;;;20.15;;
35239;SDS011;21376;50.954;4.716;2023-04-24T00:41:28;34.22;;;18.38;;
35239;SDS011;21376;50.954;4.716;2023-04-24T00:44:01;38.88;;;18.30;;
35239;SDS011;21376;50.954;4.716;2023-04-24T00:46:31;34.70;;;19.27;;
35239;SDS011;21376;50.954;4.716;2023-04-24T00:48:58;31.73;;;19.65;;
35239;SDS011;21376;50.954;4.716;2023-04-24T00:51:28;31.00;;;17.95;;
35239;SDS011;21376;50.954;4.716;2023-04-24T00:54:02;30.50;;;18.40;;
35239;SDS011;21376;50.954;4.716;2023-04-24T00:58:59;30.40;;;17.48;;
35239;SDS011;21376;50.954;4.716;2023-04-24T01:01:26;32.65;;;18.08;;
35239;SDS011;21376;50.954;4.716;2023-04-24T01:03:53;36.60;;;18.45;;
35239;SDS011;21376;50.954;4.716;2023-04-24T01:06:19;27.33;;;18.58;;
35239;SDS011;21376;50.954;4.716;2023-04-24T01:08:46;25.45;;;17.15;;
35239;SDS011;21376;50.954;4.716;2023-04-24T01:11:20;32.55;;;17.88;;
35239;SDS011;21376;50.954;4.716;2023-04-24T01:13:47;34.92;;;19.73;;
35239;SDS011;21376;50.954;4.716;2023-04-24T01:16:13;37.83;;;19.30;;
35239;SDS011;21376;50.954;4.716;2023-04-24T01:18:42;34.78;;;19.65;;
35239;SDS011;21376;50.954;4.716;2023-04-24T01:21:09;28.52;;;18.15;;
35239;SDS011;21376;50.954;4.716;2023-04-24T01:23:39;36.50;;;18.83;;
35239;SDS011;21376;50.954;4.716;2023-04-24T01:29:10;35.40;;;17.92;;
35239;SDS011;21376;50.954;4.716;2023-04-24T01:31:40;30.88;;;18.30;;
35239;SDS011;21376;50.954;4.716;2023-04-24T01:34:09;30.80;;;17.35;;
35239;SDS011;21376;50.954;4.716;2023-04-24T01:36:36;30.85;;;17.45;;
35239;SDS011;21376;50.954;4.716;2023-04-24T01:41:54;26.80;;;17.55;;
35239;SDS011;21376;50.954;4.716;2023-04-24T01:44:20;26.33;;;16.73;;
35239;SDS011;21376;50.954;4.716;2023-04-24T01:52:01;30.33;;;17.27;;
35239;SDS011;21376;50.954;4.716;2023-04-24T01:54:33;34.78;;;17.15;;
35239;SDS011;21376;50.954;4.716;2023-04-24T01:57:02;30.17;;;16.60;;
35239;SDS011;21376;50.954;4.716;2023-04-24T02:02:01;21.38;;;15.13;;
35239;SDS011;21376;50.954;4.716;2023-04-24T02:04:30;26.63;;;15.30;;
35239;SDS011;21376;50.954;4.716;2023-04-24T02:06:57;27.08;;;15.45;;
35239;SDS011;21376;50.954;4.716;2023-04-24T02:09:23;28.42;;;14.50;;
35239;SDS011;21376;50.954;4.716;2023-04-24T02:11:53;21.40;;;13.75;;
35239;SDS011;21376;50.954;4.716;2023-04-24T02:16:51;23.25;;;13.57;;
35239;SDS011;21376;50.954;4.716;2023-04-24T02:19:20;18.40;;;13.55;;
35239;SDS011;21376;50.954;4.716;2023-04-24T02:21:47;21.42;;;13.32;;
35239;SDS011;21376;50.954;4.716;2023-04-24T02:26:44;21.98;;;13.77;;
35239;SDS011;21376;50.954;4.716;2023-04-24T02:29:19;21.88;;;13.82;;
35239;SDS011;21376;50.954;4.716;2023-04-24T02:34:14;30.08;;;15.32;;
35239;SDS011;21376;50.954;4.716;2023-04-24T02:36:41;28.42;;;14.73;;
35239;SDS011;21376;50.954;4.716;2023-04-24T02:39:10;26.83;;;16.35;;
35239;SDS011;21376;50.954;4.716;2023-04-24T02:41:46;29.58;;;17.25;;
35239;SDS011;21376;50.954;4.716;2023-04-24T02:46:44;31.48;;;17.65;;
35239;SDS011;21376;50.954;4.716;2023-04-24T02:49:10;26.35;;;17.30;;
35239;SDS011;21376;50.954;4.716;2023-04-24T02:51:37;33.60;;;19.20;;
35239;SDS011;21376;50.954;4.716;2023-04-24T02:54:06;28.13;;;17.90;;
35239;SDS011;21376;50.954;4.716;2023-04-24T02:56:36;32.85;;;19.85;;
35239;SDS011;21376;50.954;4.716;2023-04-24T03:01:33;35.75;;;19.35;;
35239;SDS011;21376;50.954;4.716;2023-04-24T03:04:00;29.83;;;19.15;;
35239;SDS011;21376;50.954;4.716;2023-04-24T03:06:27;33.78;;;19.70;;
35239;SDS011;21376;50.954;4.716;2023-04-24T03:08:56;34.10;;;19.92;;
35239;SDS011;21376;50.954;4.716;2023-04-24T03:11:22;27.38;;;17.58;;
35239;SDS011;21376;50.954;4.716;2023-04-24T03:13:50;31.48;;;19.67;;
35239;SDS011;21376;50.954;4.716;2023-04-24T03:16:17;29.00;;;18.63;;
35239;SDS011;21376;50.954;4.716;2023-04-24T03:21:13;26.13;;;17.70;;
35239;SDS011;21376;50.954;4.716;2023-04-24T03:31:36;26.05;;;17.27;;
35239;SDS011;21376;50.954;4.716;2023-04-24T03:34:06;34.25;;;18.52;;
35239;SDS011;21376;50.954;4.716;2023-04-24T03:36:35;31.63;;;18.27;;
35239;SDS011;21376;50.954;4.716;2023-04-24T03:39:03;29.60;;;17.52;;
35239;SDS011;21376;50.954;4.716;2023-04-24T03:41:29;27.30;;;17.38;;
35239;SDS011;21376;50.954;4.716;2023-04-24T03:43:55;25.17;;;16.63;;
35239;SDS011;21376;50.954;4.716;2023-04-24T03:46:21;29.00;;;17.38;;
35239;SDS011;21376;50.954;4.716;2023-04-24T03:51:19;24.98;;;15.43;;
35239;SDS011;21376;50.954;4.716;2023-04-24T03:56:16;29.17;;;16.95;;
35239;SDS011;21376;50.954;4.716;2023-04-24T04:01:13;27.65;;;16.33;;
35239;SDS011;21376;50.954;4.716;2023-04-24T04:06:13;27.33;;;15.45;;
35239;SDS011;21376;50.954;4.716;2023-04-24T04:08:39;20.35;;;13.60;;
35239;SDS011;21376;50.954;4.716;2023-04-24T04:11:05;21.08;;;13.52;;
35239;SDS011;21376;50.954;4.716;2023-04-24T04:13:31;20.27;;;12.82;;
35239;SDS011;21376;50.954;4.716;2023-04-24T04:15:58;24.25;;;14.02;;
35239;SDS011;21376;50.954;4.716;2023-04-24T04:18:27;22.73;;;14.07;;
35239;SDS011;21376;50.954;4.716;2023-04-24T04:20:55;21.75;;;13.85;;
35239;SDS011;21376;50.954;4.716;2023-04-24T04:23:28;20.42;;;13.57;;
35239;SDS011;21376;50.954;4.716;2023-04-24T04:25:57;20.48;;;12.80;;
35239;SDS011;21376;50.954;4.716;2023-04-24T04:28:32;21.80;;;11.77;;
35239;SDS011;21376;50.954;4.716;2023-04-24T04:33:56;21.33;;;12.68;;
35239;SDS011;21376;50.954;4.716;2023-04-24T04:36:29;24.27;;;13.48;;
35239;SDS011;21376;50.954;4.716;2023-04-24T04:38:54;21.00;;;12.03;;
35239;SDS011;21376;50.954;4.716;2023-04-24T04:41:21;22.42;;;13.50;;
35239;SDS011;21376;50.954;4.716;2023-04-24T04:43:47;18.48;;;13.23;;
35239;SDS011;21376;50.954;4.716;2023-04-24T04:46:16;23.08;;;13.57;;
35239;SDS011;21376;50.954;4.716;2023-04-24T04:48:42;19.38;;;12.48;;
35239;SDS011;21376;50.954;4.716;2023-04-24T04:53:38;22.42;;;13.13;;
35239;SDS011;21376;50.954;4.716;2023-04-24T04:56:05;21.10;;;12.07;;
35239;SDS011;21376;50.954;4.716;2023-04-24T04:58:34;22.20;;;13.00;;
35239;SDS011;21376;50.954;4.716;2023-04-24T05:01:00;21.35;;;13.15;;
35239;SDS011;21376;50.954;4.716;2023-04-24T05:03:38;19.63;;;12.75;;
35239;SDS011;21376;50.954;4.716;2023-04-24T05:06:05;23.98;;;14.48;;
35239;SDS011;21376;50.954;4.716;2023-04-24T05:08:37;27.13;;;15.13;;
35239;SDS011;21376;50.954;4.716;2023-04-24T05:13:35;24.73;;;16.20;;
35239;SDS011;21376;50.954;4.716;2023-04-24T05:18:29;34.08;;;17.05;;
35239;SDS011;21376;50.954;4.716;2023-04-24T05:20:57;35.50;;;18.50;;
35239;SDS011;21376;50.954;4.716;2023-04-24T05:23:28;33.33;;;17.83;;
35239;SDS011;21376;50.954;4.716;2023-04-24T05:25:54;32.90;;;18.45;;
35239;SDS011;21376;50.954;4.716;2023-04-24T05:28:21;32.40;;;18.80;;
35239;SDS011;21376;50.954;4.716;2023-04-24T05:30:50;36.17;;;19.70;;
35239;SDS011;21376;50.954;4.716;2023-04-24T05:33:19;38.22;;;20.02;;
35239;SDS011;21376;50.954;4.716;2023-04-24T05:35:55;33.83;;;19.38;;
35239;SDS011;21376;50.954;4.716;2023-04-24T05:38:33;38.45;;;19.80;;
35239;SDS011;21376;50.954;4.716;2023-04-24T05:41:03;38.58;;;19.77;;
35239;SDS011;21376;50.954;4.716;2023-04-24T05:43:35;33.92;;;18.02;;
35239;SDS011;21376;50.954;4.716;2023-04-24T05:48:29;33.88;;;18.70;;
35239;SDS011;21376;50.954;4.716;2023-04-24T05:50:56;35.60;;;17.38;;
35239;SDS011;21376;50.954;4.716;2023-04-24T05:53:25;29.58;;;16.90;;
35239;SDS011;21376;50.954;4.716;2023-04-24T05:58:24;37.75;;;18.67;;
35239;SDS011;21376;50.954;4.716;2023-04-24T06:00:51;37.03;;;18.48;;
35239;SDS011;21376;50.954;4.716;2023-04-24T06:03:23;39.88;;;20.30;;
35239;SDS011;21376;50.954;4.716;2023-04-24T06:05:53;36.65;;;18.52;;
35239;SDS011;21376;50.954;4.716;2023-04-24T06:08:21;36.80;;;18.55;;
35239;SDS011;21376;50.954;4.716;2023-04-24T06:10:47;37.30;;;17.92;;
35239;SDS011;21376;50.954;4.716;2023-04-24T06:13:13;38.08;;;18.58;;
35239;SDS011;21376;50.954;4.716;2023-04-24T06:15:48;40.15;;;18.58;;
35239;SDS011;21376;50.954;4.716;2023-04-24T06:18:20;40.58;;;18.98;;
35239;SDS011;21376;50.954;4.716;2023-04-24T06:20:46;41.22;;;19.27;;
35239;SDS011;21376;50.954;4.716;2023-04-24T06:25:44;35.30;;;18.65;;
35239;SDS011;21376;50.954;4.716;2023-04-24T06:28:12;40.97;;;20.98;;
35239;SDS011;21376;50.954;4.716;2023-04-24T06:30:42;43.90;;;19.58;;
35239;SDS011;21376;50.954;4.716;2023-04-24T06:35:39;37.15;;;18.67;;
35239;SDS011;21376;50.954;4.716;2023-04-24T06:38:05;34.63;;;17.77;;
35239;SDS011;21376;50.954;4.716;2023-04-24T06:40:34;36.55;;;20.10;;
35239;SDS011;21376;50.954;4.716;2023-04-24T06:45:30;35.88;;;19.30;;
35239;SDS011;21376;50.954;4.716;2023-04-24T06:50:28;34.33;;;20.50;;
35239;SDS011;21376;50.954;4.716;2023-04-24T06:58:04;39.42;;;21.70;;
35239;SDS011;21376;50.954;4.716;2023-04-24T07:00:34;40.05;;;22.83;;
35239;SDS011;21376;50.954;4.716;2023-04-24T07:05:31;43.45;;;21.73;;
35239;SDS011;21376;50.954;4.716;2023-04-24T07:10:31;46.25;;;22.50;;
35239;SDS011;21376;50.954;4.716;2023-04-24T07:12:59;45.97;;;22.58;;
35239;SDS011;21376;50.954;4.716;2023-04-24T07:15:25;51.30;;;24.05;;
35239;SDS011;21376;50.954;4.716;2023-04-24T07:17:52;51.00;;;25.60;;
35239;SDS011;21376;50.954;4.716;2023-04-24T07:20:20;48.08;;;22.88;;
35239;SDS011;21376;50.954;4.716;2023-04-24T07:22:47;40.60;;;22.60;;
35239;SDS011;21376;50.954;4.716;2023-04-24T07:27:44;42.22;;;24.02;;
35239;SDS011;21376;50.954;4.716;2023-04-24T07:30:12;45.17;;;21.70;;
35239;SDS011;21376;50.954;4.716;2023-04-24T07:32:41;49.63;;;22.15;;
35239;SDS011;21376;50.954;4.716;2023-04-24T07:35:07;41.10;;;20.95;;
35239;SDS011;21376;50.954;4.716;2023-04-24T07:37:34;32.67;;;19.10;;
35239;SDS011;21376;50.954;4.716;2023-04-24T07:40:00;34.30;;;16.80;;
35239;SDS011;21376;50.954;4.716;2023-04-24T07:42:27;30.25;;;16.58;;
35239;SDS011;21376;50.954;4.716;2023-04-24T07:44:58;27.67;;;14.45;;
35239;SDS011;21376;50.954;4.716;2023-04-24T07:47:25;26.27;;;13.55;;
35239;SDS011;21376;50.954;4.716;2023-04-24T07:49:51;26.77;;;13.02;;
35239;SDS011;21376;50.954;4.716;2023-04-24T07:52:18;24.02;;;11.65;;
35239;SDS011;21376;50.954;4.716;2023-04-24T07:54:45;28.30;;;12.98;;
35239;SDS011;21376;50.954;4.716;2023-04-24T07:57:11;27.55;;;11.13;;
35239;SDS011;21376;50.954;4.716;2023-04-24T07:59:40;25.55;;;10.60;;
35239;SDS011;21376;50.954;4.716;2023-04-24T08:02:09;23.88;;;10.57;;
35239;SDS011;21376;50.954;4.716;2023-04-24T08:04:38;31.55;;;11.32;;
35239;SDS011;21376;50.954;4.716;2023-04-24T08:07:05;22.15;;;9.23;;
35239;SDS011;21376;50.954;4.716;2023-04-24T08:09:30;23.70;;;9.23;;
35239;SDS011;21376;50.954;4.716;2023-04-24T08:11:57;27.00;;;8.82;;
35239;SDS011;21376;50.954;4.716;2023-04-24T08:14:23;20.90;;;8.73;;
35239;SDS011;21376;50.954;4.716;2023-04-24T08:16:53;25.73;;;9.95;;
35239;SDS011;21376;50.954;4.716;2023-04-24T08:19:21;18.08;;;6.95;;
35239;SDS011;21376;50.954;4.716;2023-04-24T08:21:50;23.40;;;8.05;;
35239;SDS011;21376;50.954;4.716;2023-04-24T08:26:47;20.55;;;8.55;;
35239;SDS011;21376;50.954;4.716;2023-04-24T08:29:15;23.55;;;9.45;;
35239;SDS011;21376;50.954;4.716;2023-04-24T08:31:44;22.40;;;10.10;;
35239;SDS011;21376;50.954;4.716;2023-04-24T08:39:11;20.88;;;10.50;;
35239;SDS011;21376;50.954;4.716;2023-04-24T08:41:42;22.38;;;10.02;;
35239;SDS011;21376;50.954;4.716;2023-04-24T08:49:18;18.88;;;5.95;;
35239;SDS011;21376;50.954;4.716;2023-04-24T08:54:18;23.65;;;7.70;;
35239;SDS011;21376;50.954;4.716;2023-04-24T08:56:47;16.50;;;7.22;;
35239;SDS011;21376;50.954;4.716;2023-04-24T08:59:15;19.77;;;6.80;;
35239;SDS011;21376;50.954;4.716;2023-04-24T09:01:41;14.30;;;6.68;;
35239;SDS011;21376;50.954;4.716;2023-04-24T09:04:10;13.52;;;6.05;;
35239;SDS011;21376;50.954;4.716;2023-04-24T09:06:39;18.15;;;6.32;;
35239;SDS011;21376;50.954;4.716;2023-04-24T09:09:10;22.13;;;7.72;;
35239;SDS011;21376;50.954;4.716;2023-04-24T09:11:40;16.70;;;7.68;;
35239;SDS011;21376;50.954;4.716;2023-04-24T09:14:07;18.10;;;8.90;;
35239;SDS011;21376;50.954;4.716;2023-04-24T09:19:04;22.80;;;7.60;;
35239;SDS011;21376;50.954;4.716;2023-04-24T09:21:34;19.20;;;7.10;;
35239;SDS011;21376;50.954;4.716;2023-04-24T09:24:05;20.25;;;7.68;;
35239;SDS011;21376;50.954;4.716;2023-04-24T09:26:35;12.27;;;6.40;;
35239;SDS011;21376;50.954;4.716;2023-04-24T09:29:04;16.45;;;6.88;;
35239;SDS011;21376;50.954;4.716;2023-04-24T09:31:30;13.65;;;6.25;;
35239;SDS011;21376;50.954;4.716;2023-04-24T09:36:34;11.65;;;5.47;;
35239;SDS011;21376;50.954;4.716;2023-04-24T09:41:48;16.10;;;6.00;;
35239;SDS011;21376;50.954;4.716;2023-04-24T09:44:18;12.68;;;5.90;;
35239;SDS011;21376;50.954;4.716;2023-04-24T09:46:50;13.57;;;6.13;;
35239;SDS011;21376;50.954;4.716;2023-04-24T09:49:28;16.88;;;6.68;;
35239;SDS011;21376;50.954;4.716;2023-04-24T09:52:13;14.77;;;6.55;;
35239;SDS011;21376;50.954;4.716;2023-04-24T09:59:46;19.20;;;6.75;;
35239;SDS011;21376;50.954;4.716;2023-04-24T10:02:20;14.48;;;6.45;;
35239;SDS011;21376;50.954;4.716;2023-04-24T10:10:08;16.65;;;5.45;;
35239;SDS011;21376;50.954;4.716;2023-04-24T10:12:36;11.63;;;4.18;;
35239;SDS011;21376;50.954;4.716;2023-04-24T10:33:41;11.65;;;5.13;;
35239;SDS011;21376;50.954;4.716;2023-04-24T10:36:08;9.07;;;4.28;;
35239;SDS011;21376;50.954;4.716;2023-04-24T10:38:37;10.85;;;4.65;;
35239;SDS011;21376;50.954;4.716;2023-04-24T10:41:07;11.25;;;5.38;;
35239;SDS011;21376;50.954;4.716;2023-04-24T10:46:43;10.07;;;4.75;;
35239;SDS011;21376;50.954;4.716;2023-04-24T10:49:13;11.80;;;4.70;;
35239;SDS011;21376;50.954;4.716;2023-04-24T10:51:47;16.95;;;5.75;;
35239;SDS011;21376;50.954;4.716;2023-04-24T11:02:58;9.75;;;4.38;;
35239;SDS011;21376;50.954;4.716;2023-04-24T11:08:21;11.15;;;4.43;;
35239;SDS011;21376;50.954;4.716;2023-04-24T11:14:14;12.32;;;4.72;;
35239;SDS011;21376;50.954;4.716;2023-04-24T11:16:55;11.80;;;4.65;;
35239;SDS011;21376;50.954;4.716;2023-04-24T11:19:26;10.32;;;4.55;;
35239;SDS011;21376;50.954;4.716;2023-04-24T11:21:58;10.82;;;5.60;;
35239;SDS011;21376;50.954;4.716;2023-04-24T11:27:26;9.63;;;5.13;;
35239;SDS011;21376;50.954;4.716;2023-04-24T11:33:09;8.85;;;5.15;;
35239;SDS011;21376;50.954;4.716;2023-04-24T11:35:39;9.25;;;4.70;;
35239;SDS011;21376;50.954;4.716;2023-04-24T11:38:05;8.02;;;4.65;;
35239;SDS011;21376;50.954;4.716;2023-04-24T11:40:33;7.50;;;3.90;;
35239;SDS011;21376;50.954;4.716;2023-04-24T11:43:00;11.10;;;4.95;;
35239;SDS011;21376;50.954;4.716;2023-04-24T11:45:28;12.95;;;4.28;;
35239;SDS011;21376;50.954;4.716;2023-04-24T11:48:06;9.63;;;4.50;;
35239;SDS011;21376;50.954;4.716;2023-04-24T11:56:24;7.13;;;4.07;;
35239;SDS011;21376;50.954;4.716;2023-04-24T11:58:55;7.85;;;4.28;;
35239;SDS011;21376;50.954;4.716;2023-04-24T12:01:24;12.68;;;4.22;;
35239;SDS011;21376;50.954;4.716;2023-04-24T12:03:58;10.77;;;4.53;;
35239;SDS011;21376;50.954;4.716;2023-04-24T12:06:25;8.02;;;4.30;;
35239;SDS011;21376;50.954;4.716;2023-04-24T12:08:55;9.50;;;4.32;;
35239;SDS011;21376;50.954;4.716;2023-04-24T12:11:22;9.05;;;4.82;;
35239;SDS011;21376;50.954;4.716;2023-04-24T12:13:48;8.00;;;4.35;;
35239;SDS011;21376;50.954;4.716;2023-04-24T12:16:15;9.13;;;4.60;;
35239;SDS011;21376;50.954;4.716;2023-04-24T12:18:43;11.18;;;5.18;;
35239;SDS011;21376;50.954;4.716;2023-04-24T12:21:22;8.55;;;4.38;;
35239;SDS011;21376;50.954;4.716;2023-04-24T12:23:54;9.63;;;5.43;;
35239;SDS011;21376;50.954;4.716;2023-04-24T12:26:22;7.97;;;4.40;;
35239;SDS011;21376;50.954;4.716;2023-04-24T12:31:20;8.55;;;4.60;;
35239;SDS011;21376;50.954;4.716;2023-04-24T12:33:48;12.07;;;5.05;;
35239;SDS011;21376;50.954;4.716;2023-04-24T12:36:15;8.50;;;5.07;;
35239;SDS011;21376;50.954;4.716;2023-04-24T12:38:43;15.13;;;5.60;;
35239;SDS011;21376;50.954;4.716;2023-04-24T12:41:17;10.35;;;4.55;;
35239;SDS011;21376;50.954;4.716;2023-04-24T12:44:00;11.50;;;5.20;;
35239;SDS011;21376;50.954;4.716;2023-04-24T12:46:26;8.05;;;4.85;;
35239;SDS011;21376;50.954;4.716;2023-04-24T12:51:24;8.90;;;5.20;;
35239;SDS011;21376;50.954;4.716;2023-04-24T12:53:50;10.30;;;4.65;;
35239;SDS011;21376;50.954;4.716;2023-04-24T12:56:16;11.00;;;4.82;;
35239;SDS011;21376;50.954;4.716;2023-04-24T12:58:42;8.77;;;4.45;;
35239;SDS011;21376;50.954;4.716;2023-04-24T13:03:36;7.93;;;4.13;;
35239;SDS011;21376;50.954;4.716;2023-04-24T13:06:02;11.45;;;5.13;;
35239;SDS011;21376;50.954;4.716;2023-04-24T13:08:28;8.13;;;4.03;;
35239;SDS011;21376;50.954;4.716;2023-04-24T13:10:57;9.23;;;4.38;;
35239;SDS011;21376;50.954;4.716;2023-04-24T13:13:24;10.48;;;5.13;;
35239;SDS011;21376;50.954;4.716;2023-04-24T13:18:42;16.95;;;5.72;;
35239;SDS011;21376;50.954;4.716;2023-04-24T13:21:14;14.95;;;4.90;;
35239;SDS011;21376;50.954;4.716;2023-04-24T13:23:43;8.73;;;4.85;;
35239;SDS011;21376;50.954;4.716;2023-04-24T13:28:37;10.95;;;4.47;;
35239;SDS011;21376;50.954;4.716;2023-04-24T13:31:04;13.18;;;5.20;;
35239;SDS011;21376;50.954;4.716;2023-04-24T13:33:31;7.40;;;4.40;;
35239;SDS011;21376;50.954;4.716;2023-04-24T13:36:00;10.60;;;4.10;;
35239;SDS011;21376;50.954;4.716;2023-04-24T13:38:32;8.93;;;4.47;;
35239;SDS011;21376;50.954;4.716;2023-04-24T13:43:33;7.60;;;4.68;;
35239;SDS011;21376;50.954;4.716;2023-04-24T13:46:00;10.52;;;4.80;;
35239;SDS011;21376;50.954;4.716;2023-04-24T13:48:31;9.25;;;4.30;;
35239;SDS011;21376;50.954;4.716;2023-04-24T13:50:59;6.88;;;3.90;;
35239;SDS011;21376;50.954;4.716;2023-04-24T13:53:25;5.05;;;3.30;;
35239;SDS011;21376;50.954;4.716;2023-04-24T13:55:54;6.05;;;3.10;;
35239;SDS011;21376;50.954;4.716;2023-04-24T13:58:21;9.50;;;4.55;;
35239;SDS011;21376;50.954;4.716;2023-04-24T14:03:16;14.60;;;3.97;;
35239;SDS011;21376;50.954;4.716;2023-04-24T14:05:47;8.98;;;3.47;;
35239;SDS011;21376;50.954;4.716;2023-04-24T14:10:44;7.85;;;3.78;;
35239;SDS011;21376;50.954;4.716;2023-04-24T14:13:13;8.95;;;3.03;;
35239;SDS011;21376;50.954;4.716;2023-04-24T14:15:42;7.28;;;3.42;;
35239;SDS011;21376;50.954;4.716;2023-04-24T14:23:18;9.75;;;3.33;;
35239;SDS011;21376;50.954;4.716;2023-04-24T14:25:51;6.18;;;3.33;;
35239;SDS011;21376;50.954;4.716;2023-04-24T14:31:00;7.90;;;3.80;;
35239;SDS011;21376;50.954;4.716;2023-04-24T14:33:26;9.77;;;4.00;;
35239;SDS011;21376;50.954;4.716;2023-04-24T14:35:58;6.78;;;4.00;;
35239;SDS011;21376;50.954;4.716;2023-04-24T14:38:24;11.43;;;4.30;;
35239;SDS011;21376;50.954;4.716;2023-04-24T14:40:50;8.00;;;4.60;;
35239;SDS011;21376;50.954;4.716;2023-04-24T14:43:16;9.00;;;3.90;;
35239;SDS011;21376;50.954;4.716;2023-04-24T14:45:43;10.00;;;3.85;;
35239;SDS011;21376;50.954;4.716;2023-04-24T14:50:41;6.72;;;4.10;;
35239;SDS011;21376;50.954;4.716;2023-04-24T14:53:17;6.43;;;3.35;;
35239;SDS011;21376;50.954;4.716;2023-04-24T14:55:49;5.35;;;3.38;;
35239;SDS011;21376;50.954;4.716;2023-04-24T14:58:16;11.25;;;3.63;;
35239;SDS011;21376;50.954;4.716;2023-04-24T15:00:45;5.90;;;3.28;;
35239;SDS011;21376;50.954;4.716;2023-04-24T15:03:26;4.47;;;3.17;;
35239;SDS011;21376;50.954;4.716;2023-04-24T15:06:07;8.35;;;3.05;;
35239;SDS011;21376;50.954;4.716;2023-04-24T15:08:36;3.85;;;3.00;;
35239;SDS011;21376;50.954;4.716;2023-04-24T15:13:30;4.07;;;2.58;;
35239;SDS011;21376;50.954;4.716;2023-04-24T15:16:11;8.93;;;3.28;;
35239;SDS011;21376;50.954;4.716;2023-04-24T15:21:08;5.43;;;2.67;;
35239;SDS011;21376;50.954;4.716;2023-04-24T15:26:05;6.20;;;2.40;;
35239;SDS011;21376;50.954;4.716;2023-04-24T15:28:31;6.05;;;2.50;;
35239;SDS011;21376;50.954;4.716;2023-04-24T15:31:00;5.85;;;2.17;;
35239;SDS011;21376;50.954;4.716;2023-04-24T15:36:15;4.57;;;2.15;;
35239;SDS011;21376;50.954;4.716;2023-04-24T15:38:47;7.93;;;2.38;;
35239;SDS011;21376;50.954;4.716;2023-04-24T15:41:14;4.18;;;2.28;;
35239;SDS011;21376;50.954;4.716;2023-04-24T15:43:42;4.50;;;2.40;;
35239;SDS011;21376;50.954;4.716;2023-04-24T15:46:11;7.63;;;2.50;;
35239;SDS011;21376;50.954;4.716;2023-04-24T15:48:41;6.07;;;2.25;;
35239;SDS011;21376;50.954;4.716;2023-04-24T15:51:13;7.88;;;2.40;;
35239;SDS011;21376;50.954;4.716;2023-04-24T15:53:42;36.28;;;11.93;;
35239;SDS011;21376;50.954;4.716;2023-04-24T15:56:14;8.57;;;3.97;;
35239;SDS011;21376;50.954;4.716;2023-04-24T15:58:41;7.50;;;2.83;;
35239;SDS011;21376;50.954;4.716;2023-04-24T16:01:10;7.07;;;3.17;;
35239;SDS011;21376;50.954;4.716;2023-04-24T16:03:37;17.98;;;8.60;;
35239;SDS011;21376;50.954;4.716;2023-04-24T16:08:35;3.63;;;2.75;;
35239;SDS011;21376;50.954;4.716;2023-04-24T16:11:01;8.15;;;3.10;;
35239;SDS011;21376;50.954;4.716;2023-04-24T16:13:27;4.38;;;2.40;;
35239;SDS011;21376;50.954;4.716;2023-04-24T16:16:03;5.05;;;2.63;;
35239;SDS011;21376;50.954;4.716;2023-04-24T16:21:03;6.00;;;2.20;;
35239;SDS011;21376;50.954;4.716;2023-04-24T16:26:19;3.58;;;2.03;;
35239;SDS011;21376;50.954;4.716;2023-04-24T16:28:46;3.30;;;1.90;;
35239;SDS011;21376;50.954;4.716;2023-04-24T16:31:18;4.20;;;1.90;;
35239;SDS011;21376;50.954;4.716;2023-04-24T16:33:47;10.07;;;2.53;;
35239;SDS011;21376;50.954;4.716;2023-04-24T16:36:15;5.18;;;2.08;;
35239;SDS011;21376;50.954;4.716;2023-04-24T16:38:43;3.90;;;2.50;;
35239;SDS011;21376;50.954;4.716;2023-04-24T16:43:42;11.82;;;5.55;;
35239;SDS011;21376;50.954;4.716;2023-04-24T16:48:38;12.10;;;5.30;;
35239;SDS011;21376;50.954;4.716;2023-04-24T16:51:10;10.13;;;4.18;;
35239;SDS011;21376;50.954;4.716;2023-04-24T16:56:08;13.00;;;6.03;;
35239;SDS011;21376;50.954;4.716;2023-04-24T16:58:33;6.70;;;3.13;;
35239;SDS011;21376;50.954;4.716;2023-04-24T17:01:11;4.32;;;2.55;;
35239;SDS011;21376;50.954;4.716;2023-04-24T17:03:40;7.70;;;3.38;;
35239;SDS011;21376;50.954;4.716;2023-04-24T17:06:05;16.08;;;9.63;;
35239;SDS011;21376;50.954;4.716;2023-04-24T17:08:31;8.85;;;5.65;;
35239;SDS011;21376;50.954;4.716;2023-04-24T17:10:57;14.95;;;9.57;;
35239;SDS011;21376;50.954;4.716;2023-04-24T17:13:23;9.60;;;6.38;;
35239;SDS011;21376;50.954;4.716;2023-04-24T17:15:49;7.50;;;3.92;;
35239;SDS011;21376;50.954;4.716;2023-04-24T17:18:17;8.30;;;5.00;;
35239;SDS011;21376;50.954;4.716;2023-04-24T17:20:44;7.00;;;4.20;;
35239;SDS011;21376;50.954;4.716;2023-04-24T17:23:13;8.45;;;3.67;;
35239;SDS011;21376;50.954;4.716;2023-04-24T17:25:39;6.00;;;3.88;;
35239;SDS011;21376;50.954;4.716;2023-04-24T17:28:14;7.03;;;3.38;;
35239;SDS011;21376;50.954;4.716;2023-04-24T17:30:51;9.82;;;5.57;;
35239;SDS011;21376;50.954;4.716;2023-04-24T17:33:19;8.60;;;3.95;;
35239;SDS011;21376;50.954;4.716;2023-04-24T17:35:45;7.32;;;3.70;;
35239;SDS011;21376;50.954;4.716;2023-04-24T17:38:12;6.53;;;3.70;;
35239;SDS011;21376;50.954;4.716;2023-04-24T17:40:37;6.57;;;3.38;;
35239;SDS011;21376;50.954;4.716;2023-04-24T17:43:06;6.22;;;3.33;;
35239;SDS011;21376;50.954;4.716;2023-04-24T17:45:35;7.57;;;3.40;;
35239;SDS011;21376;50.954;4.716;2023-04-24T17:48:07;7.28;;;3.40;;
35239;SDS011;21376;50.954;4.716;2023-04-24T17:50:36;7.10;;;3.50;;
35239;SDS011;21376;50.954;4.716;2023-04-24T17:53:03;9.80;;;3.90;;
35239;SDS011;21376;50.954;4.716;2023-04-24T17:55:29;12.02;;;4.53;;
35239;SDS011;21376;50.954;4.716;2023-04-24T17:57:55;11.07;;;4.90;;
35239;SDS011;21376;50.954;4.716;2023-04-24T18:00:21;10.32;;;4.65;;
35239;SDS011;21376;50.954;4.716;2023-04-24T18:02:47;13.77;;;4.82;;
35239;SDS011;21376;50.954;4.716;2023-04-24T18:05:20;10.43;;;4.30;;
35239;SDS011;21376;50.954;4.716;2023-04-24T18:07:49;11.65;;;4.45;;
35239;SDS011;21376;50.954;4.716;2023-04-24T18:10:15;10.40;;;4.55;;
35239;SDS011;21376;50.954;4.716;2023-04-24T18:18:19;11.02;;;4.32;;
35239;SDS011;21376;50.954;4.716;2023-04-24T18:20:48;9.55;;;4.80;;
35239;SDS011;21376;50.954;4.716;2023-04-24T18:23:16;11.38;;;5.22;;
35239;SDS011;21376;50.954;4.716;2023-04-24T18:28:33;12.13;;;6.00;;
35239;SDS011;21376;50.954;4.716;2023-04-24T18:31:16;16.52;;;8.52;;
35239;SDS011;21376;50.954;4.716;2023-04-24T18:33:43;11.37;;;6.30;;
35239;SDS011;21376;50.954;4.716;2023-04-24T18:36:09;12.68;;;5.22;;
35239;SDS011;21376;50.954;4.716;2023-04-24T18:41:12;15.23;;;5.82;;
35239;SDS011;21376;50.954;4.716;2023-04-24T18:43:46;9.32;;;4.90;;
35239;SDS011;21376;50.954;4.716;2023-04-24T18:46:15;10.82;;;4.68;;